sensor_id;sensor_type;location;lat;lon;timestamp;P1;durP1;ratioP1;P2;durP2;ratioP2
47958;SDS011;33718;50.910;-1.514;2023-11-21T00:00:58;3.22;;;0.60;;
47958;SDS011;33718;50.910;-1.514;2023-11-21T00:03:06;5.47;;;0.80;;
47958;SDS011;33718;50.910;-1.514;2023-11-21T00:05:11;2.75;;;0.70;;
47958;SDS011;33718;50.910;-1.514;2023-11-21T00:07:16;2.75;;;0.52;;
47958;SDS011;33718;50.910;-1.514;2023-11-21T00:09:19;0.55;;;0.52;;
47958;SDS011;33718;50.910;-1.514;2023-11-21T00:11:22;3.50;;;1.13;;
47958;SDS011;33718;50.910;-1.514;2023-11-21T00:13:23;1.27;;;0.40;;
47958;SDS011;33718;50.910;-1.514;2023-11-21T00:15:25;3.15;;;0.47;;
47958;SDS011;33718;50.910;-1.514;2023-11-21T00:17:27;1.70;;;0.55;;
47958;SDS011;33718;50.910;-1.514;2023-11-21T00:19:30;0.68;;;0.43;;
47958;SDS011;33718;50.910;-1.514;2023-11-21T00:21:33;2.00;;;0.50;;
47958;SDS011;33718;50.910;-1.514;2023-11-21T00:23:53;1.90;;;0.57;;
47958;SDS011;33718;50.910;-1.514;2023-11-21T00:25:54;2.47;;;0.73;;
47958;SDS011;33718;50.910;-1.514;2023-11-21T00:28:15;2.72;;;0.60;;
47958;SDS011;33718;50.910;-1.514;2023-11-21T00:30:19;3.20;;;0.38;;
47958;SDS011;33718;50.910;-1.514;2023-11-21T00:32:23;5.18;;;0.77;;
47958;SDS011;33718;50.910;-1.514;2023-11-21T00:34:25;2.38;;;0.82;;
47958;SDS011;33718;50.910;-1.514;2023-11-21T00:36:29;4.00;;;0.70;;
47958;SDS011;33718;50.910;-1.514;2023-11-21T00:38:31;4.40;;;0.77;;
47958;SDS011;33718;50.910;-1.514;2023-11-21T00:40:34;2.33;;;0.30;;
47958;SDS011;33718;50.910;-1.514;2023-11-21T00:42:55;1.85;;;0.60;;
47958;SDS011;33718;50.910;-1.514;2023-11-21T00:45:18;1.55;;;0.55;;
47958;SDS011;33718;50.910;-1.514;2023-11-21T00:47:21;0.63;;;0.30;;
47958;SDS011;33718;50.910;-1.514;2023-11-21T00:49:26;4.47;;;0.43;;
47958;SDS011;33718;50.910;-1.514;2023-11-21T00:51:30;1.67;;;0.50;;
47958;SDS011;33718;50.910;-1.514;2023-11-21T00:53:53;3.50;;;0.68;;
47958;SDS011;33718;50.910;-1.514;2023-11-21T00:55:55;1.52;;;0.43;;
47958;SDS011;33718;50.910;-1.514;2023-11-21T00:57:58;4.55;;;0.73;;
47958;SDS011;33718;50.910;-1.514;2023-11-21T01:00:01;1.90;;;0.40;;
47958;SDS011;33718;50.910;-1.514;2023-11-21T01:02:06;7.50;;;0.57;;
47958;SDS011;33718;50.910;-1.514;2023-11-21T01:04:12;1.10;;;0.43;;
47958;SDS011;33718;50.910;-1.514;2023-11-21T01:06:15;4.47;;;0.80;;
47958;SDS011;33718;50.910;-1.514;2023-11-21T01:08:18;2.55;;;0.65;;
47958;SDS011;33718;50.910;-1.514;2023-11-21T01:10:23;0.90;;;0.30;;
47958;SDS011;33718;50.910;-1.514;2023-11-21T01:12:28;1.25;;;0.30;;
47958;SDS011;33718;50.910;-1.514;2023-11-21T01:14:31;0.60;;;0.50;;
47958;SDS011;33718;50.910;-1.514;2023-11-21T01:16:35;1.92;;;0.30;;
47958;SDS011;33718;50.910;-1.514;2023-11-21T01:18:38;1.65;;;0.35;;
47958;SDS011;33718;50.910;-1.514;2023-11-21T01:20:58;2.53;;;0.35;;
47958;SDS011;33718;50.910;-1.514;2023-11-21T01:23:01;2.13;;;0.47;;
47958;SDS011;33718;50.910;-1.514;2023-11-21T01:25:05;1.42;;;0.50;;
47958;SDS011;33718;50.910;-1.514;2023-11-21T01:27:08;2.50;;;0.38;;
47958;SDS011;33718;50.910;-1.514;2023-11-21T01:29:10;4.93;;;0.70;;
47958;SDS011;33718;50.910;-1.514;2023-11-21T01:31:11;2.80;;;0.50;;
47958;SDS011;33718;50.910;-1.514;2023-11-21T01:33:16;4.22;;;0.40;;
47958;SDS011;33718;50.910;-1.514;2023-11-21T01:35:22;2.58;;;0.55;;
47958;SDS011;33718;50.910;-1.514;2023-11-21T01:37:26;1.55;;;0.50;;
47958;SDS011;33718;50.910;-1.514;2023-11-21T01:39:31;0.40;;;0.30;;
47958;SDS011;33718;50.910;-1.514;2023-11-21T01:41:33;4.80;;;0.63;;
47958;SDS011;33718;50.910;-1.514;2023-11-21T01:43:55;1.05;;;0.50;;
47958;SDS011;33718;50.910;-1.514;2023-11-21T01:48:56;3.50;;;0.32;;
47958;SDS011;33718;50.910;-1.514;2023-11-21T01:51:18;1.50;;;0.30;;
47958;SDS011;33718;50.910;-1.514;2023-11-21T01:53:27;3.53;;;0.30;;
47958;SDS011;33718;50.910;-1.514;2023-11-21T01:55:31;1.85;;;0.60;;
47958;SDS011;33718;50.910;-1.514;2023-11-21T01:57:35;3.05;;;1.17;;
47958;SDS011;33718;50.910;-1.514;2023-11-21T01:59:40;3.85;;;0.60;;
47958;SDS011;33718;50.910;-1.514;2023-11-21T02:01:43;2.07;;;0.50;;
47958;SDS011;33718;50.910;-1.514;2023-11-21T02:03:45;3.83;;;0.90;;
47958;SDS011;33718;50.910;-1.514;2023-11-21T02:05:50;2.70;;;0.40;;
47958;SDS011;33718;50.910;-1.514;2023-11-21T02:07:55;2.63;;;0.60;;
47958;SDS011;33718;50.910;-1.514;2023-11-21T02:09:59;4.75;;;0.65;;
47958;SDS011;33718;50.910;-1.514;2023-11-21T02:12:22;3.67;;;0.77;;
47958;SDS011;33718;50.910;-1.514;2023-11-21T02:14:30;2.58;;;1.27;;
47958;SDS011;33718;50.910;-1.514;2023-11-21T02:16:32;1.05;;;0.60;;
47958;SDS011;33718;50.910;-1.514;2023-11-21T02:18:35;5.50;;;0.70;;
47958;SDS011;33718;50.910;-1.514;2023-11-21T02:20:39;3.92;;;1.00;;
47958;SDS011;33718;50.910;-1.514;2023-11-21T02:23:02;1.52;;;0.90;;
47958;SDS011;33718;50.910;-1.514;2023-11-21T02:25:25;1.88;;;0.60;;
47958;SDS011;33718;50.910;-1.514;2023-11-21T02:27:29;2.28;;;0.82;;
47958;SDS011;33718;50.910;-1.514;2023-11-21T02:29:51;2.13;;;0.68;;
47958;SDS011;33718;50.910;-1.514;2023-11-21T02:31:55;3.00;;;0.77;;
47958;SDS011;33718;50.910;-1.514;2023-11-21T02:33:58;3.15;;;1.67;;
47958;SDS011;33718;50.910;-1.514;2023-11-21T02:36:04;4.28;;;0.85;;
47958;SDS011;33718;50.910;-1.514;2023-11-21T02:38:08;2.08;;;0.70;;
47958;SDS011;33718;50.910;-1.514;2023-11-21T02:40:11;0.90;;;0.68;;
47958;SDS011;33718;50.910;-1.514;2023-11-21T02:42:14;0.50;;;0.50;;
47958;SDS011;33718;50.910;-1.514;2023-11-21T02:44:20;4.38;;;1.20;;
47958;SDS011;33718;50.910;-1.514;2023-11-21T02:46:21;0.90;;;0.60;;
47958;SDS011;33718;50.910;-1.514;2023-11-21T02:48:24;2.15;;;0.75;;
47958;SDS011;33718;50.910;-1.514;2023-11-21T02:50:27;0.70;;;0.60;;
47958;SDS011;33718;50.910;-1.514;2023-11-21T02:52:31;1.27;;;0.90;;
47958;SDS011;33718;50.910;-1.514;2023-11-21T02:54:36;3.40;;;1.00;;
47958;SDS011;33718;50.910;-1.514;2023-11-21T02:56:42;2.33;;;0.90;;
47958;SDS011;33718;50.910;-1.514;2023-11-21T02:58:44;0.80;;;0.70;;
47958;SDS011;33718;50.910;-1.514;2023-11-21T03:00:46;3.40;;;0.82;;
47958;SDS011;33718;50.910;-1.514;2023-11-21T03:02:48;2.00;;;1.20;;
47958;SDS011;33718;50.910;-1.514;2023-11-21T03:05:09;4.35;;;0.80;;
47958;SDS011;33718;50.910;-1.514;2023-11-21T03:07:11;1.30;;;0.90;;
47958;SDS011;33718;50.910;-1.514;2023-11-21T03:09:33;1.67;;;1.08;;
47958;SDS011;33718;50.910;-1.514;2023-11-21T03:11:36;5.32;;;1.05;;
47958;SDS011;33718;50.910;-1.514;2023-11-21T03:13:42;1.83;;;0.95;;
47958;SDS011;33718;50.910;-1.514;2023-11-21T03:15:46;0.93;;;0.80;;
47958;SDS011;33718;50.910;-1.514;2023-11-21T03:18:07;2.53;;;0.60;;
47958;SDS011;33718;50.910;-1.514;2023-11-21T03:20:09;1.83;;;0.88;;
47958;SDS011;33718;50.910;-1.514;2023-11-21T03:22:13;5.43;;;1.88;;
47958;SDS011;33718;50.910;-1.514;2023-11-21T03:24:17;1.27;;;0.90;;
47958;SDS011;33718;50.910;-1.514;2023-11-21T03:26:22;1.25;;;1.05;;
47958;SDS011;33718;50.910;-1.514;2023-11-21T03:28:26;3.63;;;1.40;;
47958;SDS011;33718;50.910;-1.514;2023-11-21T03:30:48;2.50;;;1.25;;
47958;SDS011;33718;50.910;-1.514;2023-11-21T03:32:52;4.63;;;1.40;;
47958;SDS011;33718;50.910;-1.514;2023-11-21T03:35:12;1.85;;;1.27;;
47958;SDS011;33718;50.910;-1.514;2023-11-21T03:37:14;1.40;;;1.30;;
47958;SDS011;33718;50.910;-1.514;2023-11-21T03:39:17;1.60;;;1.38;;
47958;SDS011;33718;50.910;-1.514;2023-11-21T03:41:19;2.78;;;1.95;;
47958;SDS011;33718;50.910;-1.514;2023-11-21T03:43:40;2.03;;;1.83;;
47958;SDS011;33718;50.910;-1.514;2023-11-21T03:45:42;3.72;;;1.30;;
47958;SDS011;33718;50.910;-1.514;2023-11-21T03:47:45;1.80;;;1.70;;
47958;SDS011;33718;50.910;-1.514;2023-11-21T03:49:48;3.70;;;1.80;;
47958;SDS011;33718;50.910;-1.514;2023-11-21T03:51:50;2.50;;;1.73;;
47958;SDS011;33718;50.910;-1.514;2023-11-21T03:53:54;3.22;;;2.10;;
47958;SDS011;33718;50.910;-1.514;2023-11-21T03:55:57;3.47;;;2.35;;
47958;SDS011;33718;50.910;-1.514;2023-11-21T03:58:00;4.82;;;2.30;;
47958;SDS011;33718;50.910;-1.514;2023-11-21T04:00:02;3.03;;;2.45;;
47958;SDS011;33718;50.910;-1.514;2023-11-21T04:02:05;3.40;;;3.10;;
47958;SDS011;33718;50.910;-1.514;2023-11-21T04:04:08;2.33;;;2.10;;
47958;SDS011;33718;50.910;-1.514;2023-11-21T04:06:10;5.55;;;2.50;;
47958;SDS011;33718;50.910;-1.514;2023-11-21T04:08:14;2.95;;;1.90;;
47958;SDS011;33718;50.910;-1.514;2023-11-21T04:10:15;3.42;;;2.85;;
47958;SDS011;33718;50.910;-1.514;2023-11-21T04:12:17;5.00;;;2.50;;
47958;SDS011;33718;50.910;-1.514;2023-11-21T04:14:37;6.72;;;2.90;;
47958;SDS011;33718;50.910;-1.514;2023-11-21T04:16:40;2.83;;;2.50;;
47958;SDS011;33718;50.910;-1.514;2023-11-21T04:18:45;6.15;;;2.95;;
47958;SDS011;33718;50.910;-1.514;2023-11-21T04:20:48;6.70;;;3.70;;
47958;SDS011;33718;50.910;-1.514;2023-11-21T04:22:53;5.00;;;3.70;;
47958;SDS011;33718;50.910;-1.514;2023-11-21T04:24:56;3.22;;;2.83;;
47958;SDS011;33718;50.910;-1.514;2023-11-21T04:26:59;4.80;;;2.83;;
47958;SDS011;33718;50.910;-1.514;2023-11-21T04:29:04;3.85;;;2.85;;
47958;SDS011;33718;50.910;-1.514;2023-11-21T04:31:06;4.13;;;3.33;;
47958;SDS011;33718;50.910;-1.514;2023-11-21T04:33:08;6.78;;;3.42;;
47958;SDS011;33718;50.910;-1.514;2023-11-21T04:35:12;4.00;;;3.60;;
47958;SDS011;33718;50.910;-1.514;2023-11-21T04:37:13;4.70;;;3.53;;
47958;SDS011;33718;50.910;-1.514;2023-11-21T04:39:15;5.70;;;3.78;;
47958;SDS011;33718;50.910;-1.514;2023-11-21T04:41:17;5.70;;;3.47;;
47958;SDS011;33718;50.910;-1.514;2023-11-21T04:43:25;4.85;;;3.45;;
47958;SDS011;33718;50.910;-1.514;2023-11-21T04:45:34;4.50;;;4.07;;
47958;SDS011;33718;50.910;-1.514;2023-11-21T04:47:37;3.33;;;3.13;;
47958;SDS011;33718;50.910;-1.514;2023-11-21T04:49:42;6.55;;;2.88;;
47958;SDS011;33718;50.910;-1.514;2023-11-21T04:51:47;4.03;;;2.85;;
47958;SDS011;33718;50.910;-1.514;2023-11-21T04:53:53;7.38;;;3.28;;
47958;SDS011;33718;50.910;-1.514;2023-11-21T04:56:24;5.10;;;3.35;;
47958;SDS011;33718;50.910;-1.514;2023-11-21T04:59:07;3.20;;;2.75;;
47958;SDS011;33718;50.910;-1.514;2023-11-21T05:01:22;2.47;;;2.28;;
47958;SDS011;33718;50.910;-1.514;2023-11-21T05:03:50;6.05;;;2.95;;
47958;SDS011;33718;50.910;-1.514;2023-11-21T05:05:56;3.03;;;2.83;;
47958;SDS011;33718;50.910;-1.514;2023-11-21T05:08:02;3.63;;;2.75;;
47958;SDS011;33718;50.910;-1.514;2023-11-21T05:10:25;3.67;;;2.55;;
47958;SDS011;33718;50.910;-1.514;2023-11-21T05:12:31;5.88;;;2.72;;
47958;SDS011;33718;50.910;-1.514;2023-11-21T05:14:44;5.80;;;3.05;;
47958;SDS011;33718;50.910;-1.514;2023-11-21T05:16:49;2.58;;;2.38;;
47958;SDS011;33718;50.910;-1.514;2023-11-21T05:19:13;3.40;;;2.55;;
47958;SDS011;33718;50.910;-1.514;2023-11-21T05:21:22;3.70;;;3.08;;
47958;SDS011;33718;50.910;-1.514;2023-11-21T05:23:47;3.67;;;2.60;;
47958;SDS011;33718;50.910;-1.514;2023-11-21T05:25:50;4.45;;;3.22;;
47958;SDS011;33718;50.910;-1.514;2023-11-21T05:27:56;3.08;;;2.78;;
47958;SDS011;33718;50.910;-1.514;2023-11-21T05:30:21;3.40;;;2.55;;
47958;SDS011;33718;50.910;-1.514;2023-11-21T05:32:24;3.88;;;2.65;;
47958;SDS011;33718;50.910;-1.514;2023-11-21T05:34:26;3.38;;;2.30;;
47958;SDS011;33718;50.910;-1.514;2023-11-21T05:36:28;4.03;;;2.40;;
47958;SDS011;33718;50.910;-1.514;2023-11-21T05:38:30;2.60;;;2.40;;
47958;SDS011;33718;50.910;-1.514;2023-11-21T05:40:31;2.63;;;2.42;;
47958;SDS011;33718;50.910;-1.514;2023-11-21T05:42:34;3.42;;;2.40;;
47958;SDS011;33718;50.910;-1.514;2023-11-21T05:44:56;5.57;;;2.92;;
47958;SDS011;33718;50.910;-1.514;2023-11-21T05:47:05;3.35;;;2.03;;
47958;SDS011;33718;50.910;-1.514;2023-11-21T05:49:09;3.40;;;2.15;;
47958;SDS011;33718;50.910;-1.514;2023-11-21T05:51:11;1.77;;;1.67;;
47958;SDS011;33718;50.910;-1.514;2023-11-21T05:53:15;1.45;;;1.20;;
47958;SDS011;33718;50.910;-1.514;2023-11-21T05:55:18;1.83;;;1.63;;
47958;SDS011;33718;50.910;-1.514;2023-11-21T05:57:43;2.25;;;1.60;;
47958;SDS011;33718;50.910;-1.514;2023-11-21T06:00:05;1.52;;;1.23;;
47958;SDS011;33718;50.910;-1.514;2023-11-21T06:02:15;1.20;;;1.10;;
47958;SDS011;33718;50.910;-1.514;2023-11-21T06:04:17;1.60;;;1.50;;
47958;SDS011;33718;50.910;-1.514;2023-11-21T06:06:21;4.00;;;1.00;;
47958;SDS011;33718;50.910;-1.514;2023-11-21T06:08:24;2.40;;;1.23;;
47958;SDS011;33718;50.910;-1.514;2023-11-21T06:10:28;2.28;;;1.15;;
47958;SDS011;33718;50.910;-1.514;2023-11-21T06:12:32;1.85;;;0.95;;
47958;SDS011;33718;50.910;-1.514;2023-11-21T06:14:37;0.60;;;0.60;;
47958;SDS011;33718;50.910;-1.514;2023-11-21T06:16:39;0.75;;;0.75;;
47958;SDS011;33718;50.910;-1.514;2023-11-21T06:18:48;2.75;;;0.80;;
47958;SDS011;33718;50.910;-1.514;2023-11-21T06:20:54;1.27;;;0.50;;
47958;SDS011;33718;50.910;-1.514;2023-11-21T06:23:14;0.77;;;0.47;;
47958;SDS011;33718;50.910;-1.514;2023-11-21T06:25:17;1.17;;;0.50;;
47958;SDS011;33718;50.910;-1.514;2023-11-21T06:27:19;0.85;;;0.47;;
47958;SDS011;33718;50.910;-1.514;2023-11-21T06:29:20;1.48;;;0.70;;
47958;SDS011;33718;50.910;-1.514;2023-11-21T06:31:23;1.40;;;0.60;;
47958;SDS011;33718;50.910;-1.514;2023-11-21T06:33:25;0.30;;;0.30;;
47958;SDS011;33718;50.910;-1.514;2023-11-21T06:35:30;3.53;;;0.63;;
47958;SDS011;33718;50.910;-1.514;2023-11-21T06:37:35;1.13;;;0.40;;
47958;SDS011;33718;50.910;-1.514;2023-11-21T06:39:37;2.83;;;0.63;;
47958;SDS011;33718;50.910;-1.514;2023-11-21T06:41:41;0.82;;;0.40;;
47958;SDS011;33718;50.910;-1.514;2023-11-21T06:44:03;0.47;;;0.47;;
47958;SDS011;33718;50.910;-1.514;2023-11-21T06:46:08;0.93;;;0.70;;
47958;SDS011;33718;50.910;-1.514;2023-11-21T06:48:13;2.40;;;0.70;;
47958;SDS011;33718;50.910;-1.514;2023-11-21T06:50:16;2.05;;;0.50;;
47958;SDS011;33718;50.910;-1.514;2023-11-21T06:52:18;0.65;;;0.65;;
47958;SDS011;33718;50.910;-1.514;2023-11-21T06:54:19;1.75;;;0.45;;
47958;SDS011;33718;50.910;-1.514;2023-11-21T06:56:21;0.90;;;0.77;;
47958;SDS011;33718;50.910;-1.514;2023-11-21T06:58:23;1.10;;;0.75;;
47958;SDS011;33718;50.910;-1.514;2023-11-21T07:00:26;1.67;;;0.90;;
47958;SDS011;33718;50.910;-1.514;2023-11-21T07:02:29;1.33;;;1.23;;
47958;SDS011;33718;50.910;-1.514;2023-11-21T07:04:33;1.40;;;0.82;;
47958;SDS011;33718;50.910;-1.514;2023-11-21T07:06:35;2.72;;;1.55;;
47958;SDS011;33718;50.910;-1.514;2023-11-21T07:08:38;0.93;;;0.70;;
47958;SDS011;33718;50.910;-1.514;2023-11-21T07:10:41;1.83;;;1.13;;
47958;SDS011;33718;50.910;-1.514;2023-11-21T07:12:42;1.40;;;1.13;;
47958;SDS011;33718;50.910;-1.514;2023-11-21T07:15:03;0.98;;;0.98;;
47958;SDS011;33718;50.910;-1.514;2023-11-21T07:17:07;2.08;;;0.85;;
47958;SDS011;33718;50.910;-1.514;2023-11-21T07:19:09;0.63;;;0.63;;
47958;SDS011;33718;50.910;-1.514;2023-11-21T07:21:13;1.73;;;0.60;;
47958;SDS011;33718;50.910;-1.514;2023-11-21T07:23:18;0.60;;;0.60;;
47958;SDS011;33718;50.910;-1.514;2023-11-21T07:25:21;0.93;;;0.70;;
47958;SDS011;33718;50.910;-1.514;2023-11-21T07:27:24;0.70;;;0.70;;
47958;SDS011;33718;50.910;-1.514;2023-11-21T07:29:26;0.75;;;0.75;;
47958;SDS011;33718;50.910;-1.514;2023-11-21T07:31:28;3.60;;;0.90;;
47958;SDS011;33718;50.910;-1.514;2023-11-21T07:33:31;0.82;;;0.68;;
47958;SDS011;33718;50.910;-1.514;2023-11-21T07:35:33;3.97;;;1.08;;
47958;SDS011;33718;50.910;-1.514;2023-11-21T07:37:35;1.27;;;0.75;;
47958;SDS011;33718;50.910;-1.514;2023-11-21T07:39:36;3.10;;;1.25;;
47958;SDS011;33718;50.910;-1.514;2023-11-21T07:41:38;7.90;;;1.10;;
47958;SDS011;33718;50.910;-1.514;2023-11-21T07:43:46;1.63;;;1.45;;
47958;SDS011;33718;50.910;-1.514;2023-11-21T07:45:49;7.93;;;1.10;;
47958;SDS011;33718;50.910;-1.514;2023-11-21T07:47:51;6.88;;;0.70;;
47958;SDS011;33718;50.910;-1.514;2023-11-21T07:49:53;1.17;;;0.77;;
47958;SDS011;33718;50.910;-1.514;2023-11-21T07:51:57;1.27;;;0.80;;
47958;SDS011;33718;50.910;-1.514;2023-11-21T07:53:59;1.05;;;0.95;;
47958;SDS011;33718;50.910;-1.514;2023-11-21T07:56:04;1.98;;;1.02;;
47958;SDS011;33718;50.910;-1.514;2023-11-21T07:58:06;0.93;;;0.82;;
47958;SDS011;33718;50.910;-1.514;2023-11-21T08:00:08;0.75;;;0.60;;
47958;SDS011;33718;50.910;-1.514;2023-11-21T08:02:14;2.45;;;0.77;;
47958;SDS011;33718;50.910;-1.514;2023-11-21T08:04:24;4.32;;;0.90;;
47958;SDS011;33718;50.910;-1.514;2023-11-21T08:06:54;3.05;;;0.80;;
47958;SDS011;33718;50.910;-1.514;2023-11-21T08:09:00;1.08;;;0.60;;
47958;SDS011;33718;50.910;-1.514;2023-11-21T08:11:06;1.90;;;0.60;;
47958;SDS011;33718;50.910;-1.514;2023-11-21T08:13:17;1.48;;;0.60;;
47958;SDS011;33718;50.910;-1.514;2023-11-21T08:15:26;0.95;;;0.50;;
47958;SDS011;33718;50.910;-1.514;2023-11-21T08:17:31;2.83;;;0.60;;
47958;SDS011;33718;50.910;-1.514;2023-11-21T08:19:57;3.88;;;0.60;;
47958;SDS011;33718;50.910;-1.514;2023-11-21T08:22:21;2.53;;;0.63;;
47958;SDS011;33718;50.910;-1.514;2023-11-21T08:24:27;2.35;;;0.40;;
47958;SDS011;33718;50.910;-1.514;2023-11-21T08:26:32;0.90;;;0.60;;
47958;SDS011;33718;50.910;-1.514;2023-11-21T08:28:36;3.70;;;0.47;;
47958;SDS011;33718;50.910;-1.514;2023-11-21T08:30:39;4.57;;;0.70;;
47958;SDS011;33718;50.910;-1.514;2023-11-21T08:32:44;2.95;;;0.73;;
47958;SDS011;33718;50.910;-1.514;2023-11-21T08:35:07;2.13;;;0.40;;
47958;SDS011;33718;50.910;-1.514;2023-11-21T08:37:28;1.40;;;0.50;;
47958;SDS011;33718;50.910;-1.514;2023-11-21T08:39:51;0.25;;;0.25;;
47958;SDS011;33718;50.910;-1.514;2023-11-21T08:41:57;0.52;;;0.38;;
47958;SDS011;33718;50.910;-1.514;2023-11-21T08:43:59;0.55;;;0.40;;
47958;SDS011;33718;50.910;-1.514;2023-11-21T08:46:21;3.88;;;0.40;;
47958;SDS011;33718;50.910;-1.514;2023-11-21T08:48:36;2.13;;;0.50;;
47958;SDS011;33718;50.910;-1.514;2023-11-21T08:50:44;1.17;;;0.30;;
47958;SDS011;33718;50.910;-1.514;2023-11-21T08:52:48;5.07;;;0.38;;
47958;SDS011;33718;50.910;-1.514;2023-11-21T08:55:09;5.88;;;1.48;;
47958;SDS011;33718;50.910;-1.514;2023-11-21T08:57:17;3.03;;;0.60;;
47958;SDS011;33718;50.910;-1.514;2023-11-21T08:59:26;1.05;;;0.47;;
47958;SDS011;33718;50.910;-1.514;2023-11-21T09:01:43;0.73;;;0.52;;
47958;SDS011;33718;50.910;-1.514;2023-11-21T09:03:49;0.60;;;0.22;;
47958;SDS011;33718;50.910;-1.514;2023-11-21T09:05:53;0.68;;;0.40;;
47958;SDS011;33718;50.910;-1.514;2023-11-21T09:10:00;3.00;;;0.25;;
47958;SDS011;33718;50.910;-1.514;2023-11-21T09:12:10;1.88;;;0.30;;
47958;SDS011;33718;50.910;-1.514;2023-11-21T09:14:35;1.83;;;0.45;;
47958;SDS011;33718;50.910;-1.514;2023-11-21T09:16:56;1.50;;;0.40;;
47958;SDS011;33718;50.910;-1.514;2023-11-21T09:19:03;2.03;;;0.30;;
47958;SDS011;33718;50.910;-1.514;2023-11-21T09:21:08;3.50;;;0.45;;
47958;SDS011;33718;50.910;-1.514;2023-11-21T09:23:10;1.70;;;0.30;;
47958;SDS011;33718;50.910;-1.514;2023-11-21T09:25:30;3.03;;;0.30;;
47958;SDS011;33718;50.910;-1.514;2023-11-21T09:27:51;2.10;;;0.35;;
47958;SDS011;33718;50.910;-1.514;2023-11-21T09:29:53;0.60;;;0.20;;
47958;SDS011;33718;50.910;-1.514;2023-11-21T09:31:55;1.55;;;0.28;;
47958;SDS011;33718;50.910;-1.514;2023-11-21T09:34:19;0.38;;;0.13;;
47958;SDS011;33718;50.910;-1.514;2023-11-21T09:36:20;0.30;;;0.30;;
47958;SDS011;33718;50.910;-1.514;2023-11-21T09:38:25;0.63;;;0.22;;
47958;SDS011;33718;50.910;-1.514;2023-11-21T09:40:48;3.33;;;0.50;;
47958;SDS011;33718;50.910;-1.514;2023-11-21T09:43:14;0.82;;;0.22;;
47958;SDS011;33718;50.910;-1.514;2023-11-21T09:45:28;1.75;;;0.38;;
47958;SDS011;33718;50.910;-1.514;2023-11-21T09:47:30;0.68;;;0.40;;
47958;SDS011;33718;50.910;-1.514;2023-11-21T09:49:34;1.50;;;0.20;;
47958;SDS011;33718;50.910;-1.514;2023-11-21T09:51:37;0.60;;;0.25;;
47958;SDS011;33718;50.910;-1.514;2023-11-21T09:53:42;0.43;;;0.20;;
47958;SDS011;33718;50.910;-1.514;2023-11-21T09:56:03;4.32;;;0.30;;
47958;SDS011;33718;50.910;-1.514;2023-11-21T09:58:05;0.40;;;0.15;;
47958;SDS011;33718;50.910;-1.514;2023-11-21T10:00:13;2.03;;;0.38;;
47958;SDS011;33718;50.910;-1.514;2023-11-21T10:02:19;2.40;;;0.20;;
47958;SDS011;33718;50.910;-1.514;2023-11-21T10:04:41;2.95;;;0.20;;
47958;SDS011;33718;50.910;-1.514;2023-11-21T10:06:42;1.17;;;0.30;;
47958;SDS011;33718;50.910;-1.514;2023-11-21T10:09:05;2.83;;;0.22;;
47958;SDS011;33718;50.910;-1.514;2023-11-21T10:11:13;1.45;;;0.20;;
47958;SDS011;33718;50.910;-1.514;2023-11-21T10:13:17;0.32;;;0.20;;
47958;SDS011;33718;50.910;-1.514;2023-11-21T10:15:23;3.75;;;0.32;;
47958;SDS011;33718;50.910;-1.514;2023-11-21T10:17:44;1.20;;;0.20;;
47958;SDS011;33718;50.910;-1.514;2023-11-21T10:19:47;2.03;;;0.28;;
47958;SDS011;33718;50.910;-1.514;2023-11-21T10:21:49;1.65;;;0.40;;
47958;SDS011;33718;50.910;-1.514;2023-11-21T10:23:52;1.38;;;0.50;;
47958;SDS011;33718;50.910;-1.514;2023-11-21T10:25:54;1.33;;;0.20;;
47958;SDS011;33718;50.910;-1.514;2023-11-21T10:28:01;4.35;;;1.02;;
47958;SDS011;33718;50.910;-1.514;2023-11-21T10:30:06;1.38;;;0.20;;
47958;SDS011;33718;50.910;-1.514;2023-11-21T10:32:36;0.65;;;0.65;;
47958;SDS011;33718;50.910;-1.514;2023-11-21T10:34:38;3.67;;;0.38;;
47958;SDS011;33718;50.910;-1.514;2023-11-21T10:36:40;1.67;;;0.40;;
47958;SDS011;33718;50.910;-1.514;2023-11-21T10:39:00;1.23;;;0.68;;
47958;SDS011;33718;50.910;-1.514;2023-11-21T10:41:02;0.38;;;0.20;;
47958;SDS011;33718;50.910;-1.514;2023-11-21T10:43:28;1.45;;;0.40;;
47958;SDS011;33718;50.910;-1.514;2023-11-21T10:47:34;1.05;;;0.43;;
47958;SDS011;33718;50.910;-1.514;2023-11-21T10:49:55;0.63;;;0.40;;
47958;SDS011;33718;50.910;-1.514;2023-11-21T10:51:57;1.77;;;0.40;;
47958;SDS011;33718;50.910;-1.514;2023-11-21T10:53:58;1.65;;;0.40;;
47958;SDS011;33718;50.910;-1.514;2023-11-21T10:56:05;0.70;;;0.30;;
47958;SDS011;33718;50.910;-1.514;2023-11-21T10:58:08;1.13;;;0.40;;
47958;SDS011;33718;50.910;-1.514;2023-11-21T11:00:12;1.15;;;0.63;;
47958;SDS011;33718;50.910;-1.514;2023-11-21T11:02:23;1.70;;;0.50;;
47958;SDS011;33718;50.910;-1.514;2023-11-21T11:04:27;1.25;;;0.30;;
47958;SDS011;33718;50.910;-1.514;2023-11-21T11:06:30;6.85;;;0.60;;
47958;SDS011;33718;50.910;-1.514;2023-11-21T11:08:35;2.00;;;0.50;;
47958;SDS011;33718;50.910;-1.514;2023-11-21T11:10:39;1.63;;;0.30;;
47958;SDS011;33718;50.910;-1.514;2023-11-21T11:12:45;1.25;;;0.40;;
47958;SDS011;33718;50.910;-1.514;2023-11-21T11:14:52;0.57;;;0.30;;
47958;SDS011;33718;50.910;-1.514;2023-11-21T11:17:14;2.53;;;0.40;;
47958;SDS011;33718;50.910;-1.514;2023-11-21T11:19:18;1.05;;;0.32;;
47958;SDS011;33718;50.910;-1.514;2023-11-21T11:21:31;1.07;;;0.50;;
47958;SDS011;33718;50.910;-1.514;2023-11-21T11:32:27;1.55;;;0.43;;
47958;SDS011;33718;50.910;-1.514;2023-11-21T11:37:11;2.78;;;0.63;;
47958;SDS011;33718;50.910;-1.514;2023-11-21T11:41:32;6.45;;;0.30;;
47958;SDS011;33718;50.910;-1.514;2023-11-21T11:45:58;0.70;;;0.35;;
47958;SDS011;33718;50.910;-1.514;2023-11-21T11:48:20;1.30;;;0.30;;
47958;SDS011;33718;50.910;-1.514;2023-11-21T11:50:24;1.10;;;0.38;;
47958;SDS011;33718;50.910;-1.514;2023-11-21T11:52:32;1.73;;;0.38;;
47958;SDS011;33718;50.910;-1.514;2023-11-21T11:54:36;1.45;;;0.30;;
47958;SDS011;33718;50.910;-1.514;2023-11-21T11:56:38;3.22;;;0.30;;
47958;SDS011;33718;50.910;-1.514;2023-11-21T11:58:42;2.92;;;0.38;;
47958;SDS011;33718;50.910;-1.514;2023-11-21T12:00:44;0.50;;;0.25;;
47958;SDS011;33718;50.910;-1.514;2023-11-21T12:02:57;1.10;;;0.43;;
47958;SDS011;33718;50.910;-1.514;2023-11-21T12:05:23;1.75;;;0.20;;
47958;SDS011;33718;50.910;-1.514;2023-11-21T12:07:30;0.20;;;0.20;;
47958;SDS011;33718;50.910;-1.514;2023-11-21T12:09:40;5.15;;;0.50;;
47958;SDS011;33718;50.910;-1.514;2023-11-21T12:11:44;2.83;;;0.40;;
47958;SDS011;33718;50.910;-1.514;2023-11-21T12:14:04;2.28;;;0.77;;
47958;SDS011;33718;50.910;-1.514;2023-11-21T12:16:08;0.73;;;0.60;;
47958;SDS011;33718;50.910;-1.514;2023-11-21T12:18:11;0.38;;;0.30;;
47958;SDS011;33718;50.910;-1.514;2023-11-21T12:20:13;0.45;;;0.35;;
47958;SDS011;33718;50.910;-1.514;2023-11-21T12:22:49;0.30;;;0.30;;
47958;SDS011;33718;50.910;-1.514;2023-11-21T12:24:51;0.93;;;0.40;;
47958;SDS011;33718;50.910;-1.514;2023-11-21T12:26:52;0.73;;;0.30;;
47958;SDS011;33718;50.910;-1.514;2023-11-21T12:28:54;1.38;;;0.80;;
47958;SDS011;33718;50.910;-1.514;2023-11-21T12:30:57;4.60;;;0.50;;
47958;SDS011;33718;50.910;-1.514;2023-11-21T12:33:16;1.02;;;0.38;;
47958;SDS011;33718;50.910;-1.514;2023-11-21T12:35:20;1.38;;;0.30;;
47958;SDS011;33718;50.910;-1.514;2023-11-21T12:37:22;0.88;;;0.40;;
47958;SDS011;33718;50.910;-1.514;2023-11-21T12:39:24;1.85;;;0.35;;
47958;SDS011;33718;50.910;-1.514;2023-11-21T12:41:26;0.75;;;0.40;;
47958;SDS011;33718;50.910;-1.514;2023-11-21T12:43:28;0.55;;;0.50;;
47958;SDS011;33718;50.910;-1.514;2023-11-21T12:45:30;0.63;;;0.40;;
47958;SDS011;33718;50.910;-1.514;2023-11-21T12:47:51;0.22;;;0.22;;
47958;SDS011;33718;50.910;-1.514;2023-11-21T12:49:53;0.32;;;0.30;;
47958;SDS011;33718;50.910;-1.514;2023-11-21T12:51:55;0.77;;;0.30;;
47958;SDS011;33718;50.910;-1.514;2023-11-21T12:53:59;0.32;;;0.30;;
47958;SDS011;33718;50.910;-1.514;2023-11-21T12:56:01;0.50;;;0.30;;
47958;SDS011;33718;50.910;-1.514;2023-11-21T12:58:03;1.25;;;0.60;;